Main page
METAR-TAF:

METAR-TAF

Airports :

Trieste / Ronchi dei Legionari, Italy

Trieste – Friuli Venezia Giulia Airport

latitude: 45-49N, longitude: 013-29E, elevation: 12 m

Current weather observation

The report was made 39 minutes ago, at 02:20 UTC
Wind 6 kt from the East
Temperature 19°C
Humidity 64%
Pressure 1021 hPa
Visibility 10 km or more

METAR: LIPQ 280220Z AUTO 09006KT 9999 BKN070/// 19/12 Q1021

Time: 04:59 (02:59 UTC)

Forecast

The report was made 3 hours and 59 minutes ago, at 23:00 UTC
Forecast valid from 28 at 00 UTC to 28 at 24 UTC
Wind 6 kt from variable directions
Visibility 10 km or more
Few clouds at a height of 5000 ft
Becoming
from 28 at 11 UTC to 28 at 13 UTC
Wind 10 kt from the South/Southwest
Becoming
from 28 at 15 UTC to 28 at 18 UTC
Wind 5 kt from variable directions

TAF: LIPQ 272300Z 2800/2824 VRB06KT 9999 FEW050 BECMG 2811/2813 20010KT BECMG 2815/2818 VRB05KT

Weather observations and forecasts of more than 4000 airports (METAR and TAF reports).

The available stations are represented by yellow and red dots on the map.

Hover mouse over dot to see the name of the station.

Then click to see weather observations and forecasts.

To change the map : click on the green buttons with a black cross to zoom in, on the green button with a dash to zoom out, or on the green arrows for adjacent maps.


METAR-TAF: